Time;durP1;ratioP1;P1;durP2;ratioP2;P2;SDS_P1;SDS_P2;PMS_P1;PMS_P2;Temp;Humidity;BMP_temperature;BMP_pressure;BME280_temperature;BME280_humidity;BME280_pressure;Samples;Min_cycle;Max_cycle;Signal;HPM_P1;HPM_P2
2021/10/25 00:01:51;;;;;;;6.38;2.78;;;6.70;85.30;;;;;;5011792;28;20393;-76
2021/10/25 00:04:17;;;;;;;4.60;2.60;;;6.70;85.30;;;;;;5011933;28;20381;-77
2021/10/25 00:06:43;;;;;;;5.37;2.33;;;6.60;85.60;;;;;;5012126;28;20466;-77
2021/10/25 00:09:08;;;;;;;3.83;2.60;;;6.70;85.70;;;;;;5011856;28;20387;-78
2021/10/25 00:11:34;;;;;;;4.50;2.60;;;6.70;85.60;;;;;;4994029;28;20373;-77
2021/10/25 00:13:59;;;;;;;6.67;2.73;;;6.60;85.50;;;;;;5011972;28;20753;-77
2021/10/25 00:16:25;;;;;;;7.40;2.50;;;6.50;86.00;;;;;;5011527;28;20388;-77
2021/10/25 00:18:50;;;;;;;5.22;2.70;;;6.50;86.00;;;;;;5011294;28;20377;-78
2021/10/25 00:21:16;;;;;;;5.93;2.67;;;6.50;85.90;;;;;;5011395;28;20424;-77
2021/10/25 00:23:41;;;;;;;4.23;2.33;;;6.50;85.90;;;;;;5011534;28;20861;-78
2021/10/25 00:26:07;;;;;;;5.73;2.37;;;6.60;86.10;;;;;;5011795;28;20434;-77
2021/10/25 00:28:33;;;;;;;4.63;2.30;;;6.60;85.90;;;;;;5011520;28;20371;-77
2021/10/25 00:30:58;;;;;;;4.47;2.42;;;6.60;85.70;;;;;;5011360;28;20861;-77
2021/10/25 00:33:24;;;;;;;5.70;2.60;;;6.60;85.70;;;;;;5011152;28;20434;-78
2021/10/25 00:35:49;;;;;;;6.18;2.72;;;6.50;86.20;;;;;;5011555;28;20387;-78
2021/10/25 00:38:15;;;;;;;4.70;2.70;;;6.50;86.10;;;;;;5011370;28;20388;-79
2021/10/25 00:40:42;;;;;;;7.50;2.63;;;6.50;86.40;;;;;;4993772;28;20891;-76
2021/10/25 00:43:09;;;;;;;5.63;2.78;;;6.40;86.00;;;;;;5011316;28;20447;-77
2021/10/25 00:45:35;;;;;;;5.82;2.60;;;6.40;86.10;;;;;;4994065;28;20936;-77
2021/10/25 00:48:00;;;;;;;5.63;2.50;;;6.40;86.10;;;;;;5014809;28;20464;-77
2021/10/25 00:50:26;;;;;;;6.23;2.80;;;6.40;85.90;;;;;;5015275;28;20384;-78
2021/10/25 00:52:53;;;;;;;6.43;2.30;;;6.40;85.70;;;;;;5015447;28;20838;-78
2021/10/25 00:55:18;;;;;;;7.65;2.60;;;6.40;86.00;;;;;;5015457;28;20387;-78
2021/10/25 00:57:44;;;;;;;4.67;2.27;;;6.40;85.80;;;;;;4997810;28;20381;-77
2021/10/25 01:00:11;;;;;;;7.77;2.60;;;6.40;86.00;;;;;;5002655;28;20435;-76
2021/10/25 01:02:37;;;;;;;5.05;2.45;;;6.30;85.90;;;;;;5015201;28;20380;-77
2021/10/25 01:05:04;;;;;;;4.53;2.53;;;6.30;86.10;;;;;;4997315;28;20396;-76
2021/10/25 01:07:29;;;;;;;5.28;2.47;;;6.10;86.60;;;;;;5015313;28;20783;-77
2021/10/25 01:09:56;;;;;;;4.43;2.35;;;6.10;86.60;;;;;;4997162;28;20492;-77
2021/10/25 01:12:22;;;;;;;3.88;2.30;;;6.10;86.60;;;;;;4997605;28;20722;-77
2021/10/25 01:14:48;;;;;;;4.33;2.47;;;6.00;86.50;;;;;;5014860;28;20373;-78
2021/10/25 01:17:13;;;;;;;4.27;2.60;;;6.00;86.50;;;;;;5014924;28;20392;-77
2021/10/25 01:19:39;;;;;;;5.90;2.70;;;6.00;86.60;;;;;;5014923;28;20454;-78
2021/10/25 01:22:05;;;;;;;4.13;2.27;;;6.10;86.40;;;;;;5014551;28;20381;-78
2021/10/25 01:24:30;;;;;;;3.27;2.40;;;6.00;86.70;;;;;;5014992;28;20380;-78
2021/10/25 01:26:56;;;;;;;4.43;2.50;;;6.00;86.50;;;;;;5014587;28;20404;-76
2021/10/25 01:29:22;;;;;;;5.30;2.65;;;6.00;86.30;;;;;;4997106;28;20440;-76
2021/10/25 01:31:48;;;;;;;3.75;2.08;;;5.90;86.70;;;;;;5014351;28;20459;-77
2021/10/25 01:34:14;;;;;;;5.40;2.35;;;5.80;87.10;;;;;;5014725;28;20388;-77
2021/10/25 01:36:40;;;;;;;4.13;2.33;;;5.90;87.00;;;;;;5014047;28;20416;-77
2021/10/25 01:39:07;;;;;;;3.80;2.15;;;5.90;87.00;;;;;;5014618;28;20492;-77
2021/10/25 01:41:33;;;;;;;4.45;2.50;;;5.90;86.80;;;;;;5014257;28;20412;-76
2021/10/25 01:43:59;;;;;;;3.57;2.27;;;5.90;86.70;;;;;;5014301;28;20376;-77
2021/10/25 01:46:24;;;;;;;4.40;2.50;;;5.80;87.30;;;;;;5014146;28;20798;-77
2021/10/25 01:48:50;;;;;;;10.17;2.47;;;5.90;87.00;;;;;;5014200;28;20695;-77
2021/10/25 01:51:15;;;;;;;4.33;2.20;;;5.90;86.90;;;;;;5014338;28;20385;-78
2021/10/25 01:53:41;;;;;;;4.10;2.43;;;5.90;86.90;;;;;;5014189;28;20786;-77
2021/10/25 01:56:08;;;;;;;4.38;2.30;;;5.80;86.60;;;;;;4996542;28;20421;-79
2021/10/25 01:58:34;;;;;;;3.42;2.10;;;5.80;86.90;;;;;;5013465;28;20416;-77
2021/10/25 02:01:00;;;;;;;3.20;2.25;;;5.70;87.20;;;;;;5014130;28;20440;-78
2021/10/25 02:03:25;;;;;;;6.40;2.60;;;5.70;87.40;;;;;;5014012;28;20738;-77
2021/10/25 02:05:51;;;;;;;8.65;2.63;;;5.80;86.90;;;;;;5014030;28;20385;-76
2021/10/25 02:08:17;;;;;;;8.02;2.72;;;5.70;87.10;;;;;;5013907;28;20381;-77
2021/10/25 02:10:43;;;;;;;3.85;2.33;;;5.70;87.30;;;;;;5014042;28;20389;-77
2021/10/25 02:13:15;;;;;;;7.10;2.58;;;5.70;87.30;;;;;;5013787;28;20464;-77
2021/10/25 02:15:41;;;;;;;5.20;2.63;;;5.70;87.10;;;;;;5013657;28;20442;-77
2021/10/25 02:18:07;;;;;;;3.65;2.30;;;5.60;87.40;;;;;;4996338;28;20769;-78
2021/10/25 02:20:32;;;;;;;9.13;2.90;;;5.60;87.30;;;;;;5013552;28;20404;-77
2021/10/25 02:22:58;;;;;;;6.00;2.20;;;5.50;87.50;;;;;;5013241;28;20388;-77
2021/10/25 02:25:24;;;;;;;4.83;2.47;;;5.50;87.00;;;;;;5013510;28;20853;-76
2021/10/25 02:27:50;;;;;;;4.93;2.23;;;5.60;87.20;;;;;;5013701;28;20401;-77
2021/10/25 02:30:16;;;;;;;6.35;2.50;;;5.60;87.30;;;;;;5013119;28;20784;-77
2021/10/25 02:32:43;;;;;;;4.33;2.50;;;5.40;87.40;;;;;;4995761;28;20467;-76
2021/10/25 02:35:08;;;;;;;3.90;2.40;;;5.50;87.30;;;;;;4996044;28;20388;-76
2021/10/25 02:37:34;;;;;;;7.17;2.70;;;5.40;87.50;;;;;;5013187;28;20389;-78
2021/10/25 02:39:59;;;;;;;6.20;2.45;;;5.40;87.50;;;;;;5013105;28;20746;-77
2021/10/25 02:42:25;;;;;;;4.72;2.65;;;5.40;87.40;;;;;;5013165;28;20384;-76
2021/10/25 02:44:50;;;;;;;4.20;2.42;;;5.40;87.70;;;;;;4995869;28;20410;-77
2021/10/25 02:47:17;;;;;;;4.15;2.60;;;5.40;87.60;;;;;;4995747;28;20380;-77
2021/10/25 02:49:43;;;;;;;6.63;2.30;;;5.40;87.50;;;;;;4995748;28;20769;-76
2021/10/25 02:52:08;;;;;;;5.32;2.10;;;5.40;87.10;;;;;;5012628;28;20443;-77
2021/10/25 02:54:34;;;;;;;7.93;2.50;;;5.30;87.60;;;;;;4995718;28;20388;-77
2021/10/25 02:57:00;;;;;;;3.50;2.25;;;5.20;87.70;;;;;;5012842;28;20415;-79
2021/10/25 02:59:25;;;;;;;6.17;2.60;;;5.20;87.60;;;;;;4995493;28;20447;-77
2021/10/25 03:01:51;;;;;;;4.53;2.70;;;5.20;87.70;;;;;;5012521;28;20385;-77
2021/10/25 03:04:17;;;;;;;7.27;2.60;;;5.30;87.60;;;;;;5012794;28;20391;-77
2021/10/25 03:06:42;;;;;;;7.50;2.70;;;5.30;87.50;;;;;;5013034;28;20392;-78
2021/10/25 03:09:09;;;;;;;5.05;2.65;;;5.30;87.20;;;;;;5011709;28;20459;-77
2021/10/25 03:11:35;;;;;;;5.60;2.53;;;5.30;87.20;;;;;;5012887;28;20377;-77
2021/10/25 03:14:01;;;;;;;7.10;2.97;;;5.20;87.50;;;;;;5012222;28;20883;-78
2021/10/25 03:16:27;;;;;;;6.50;2.88;;;5.10;87.20;;;;;;4995035;28;20377;-77
2021/10/25 03:18:52;;;;;;;3.60;2.37;;;5.10;87.70;;;;;;5012396;28;20442;-77
2021/10/25 03:21:20;;;;;;;4.00;2.43;;;5.20;87.50;;;;;;5012014;28;20405;-78
2021/10/25 03:23:47;;;;;;;5.18;3.22;;;5.10;87.30;;;;;;5010902;28;20380;-78
2021/10/25 03:26:13;;;;;;;3.90;2.25;;;5.00;87.70;;;;;;5012189;28;20388;-78
2021/10/25 03:28:38;;;;;;;4.82;2.40;;;5.00;88.00;;;;;;5012457;28;20392;-78
2021/10/25 03:31:05;;;;;;;6.03;2.38;;;5.00;87.60;;;;;;4994612;28;20742;-78
2021/10/25 03:33:33;;;;;;;6.70;2.60;;;4.90;87.80;;;;;;4994552;28;20385;-77
2021/10/25 03:36:01;;;;;;;5.80;2.75;;;4.90;88.10;;;;;;5012251;28;20813;-78
2021/10/25 03:38:27;;;;;;;8.70;2.87;;;4.90;88.00;;;;;;5012736;28;20447;-78
2021/10/25 03:40:54;;;;;;;5.03;2.65;;;4.90;87.80;;;;;;5012113;28;20404;-78
2021/10/25 03:43:21;;;;;;;8.90;2.77;;;4.90;87.60;;;;;;5012311;28;20718;-77
2021/10/25 03:48:39;;;;;;;3.80;2.60;;;4.90;87.50;;;;;;5012039;28;20379;-78
2021/10/25 03:51:07;;;;;;;5.43;2.65;;;4.90;87.80;;;;;;5012004;28;20460;-76
2021/10/25 03:53:41;;;;;;;5.10;2.60;;;4.80;87.80;;;;;;5011909;28;20416;-76
2021/10/25 03:56:13;;;;;;;5.18;2.53;;;4.70;88.00;;;;;;5012023;28;20741;-77
2021/10/25 04:01:29;;;;;;;7.97;2.63;;;4.70;88.00;;;;;;5012004;28;20829;-77
2021/10/25 04:25:50;;;;;;;7.00;3.22;;;5.10;89.50;;;;;;5011473;28;20726;-76
2021/10/25 04:28:21;;;;;;;8.43;3.30;;;5.20;90.20;;;;;;5011626;28;20869;-77
2021/10/25 04:30:53;;;;;;;5.78;3.28;;;5.50;91.20;;;;;;5011498;28;20472;-78
2021/10/25 04:33:19;;;;;;;8.18;3.55;;;5.40;90.60;;;;;;5011675;28;20397;-77
2021/10/25 04:35:45;;;;;;;6.03;3.22;;;5.50;91.00;;;;;;5011327;28;20423;-78
2021/10/25 04:38:10;;;;;;;9.60;3.10;;;5.60;90.80;;;;;;4993870;28;20385;-78
2021/10/25 04:40:36;;;;;;;6.50;3.17;;;5.50;90.50;;;;;;5011318;28;20408;-77
2021/10/25 04:43:02;;;;;;;8.00;3.40;;;5.50;90.60;;;;;;5011197;28;20481;-77
2021/10/25 04:45:27;;;;;;;5.60;3.42;;;5.60;90.70;;;;;;5011630;28;20372;-77
2021/10/25 04:47:54;;;;;;;6.13;3.38;;;5.70;91.20;;;;;;5011319;28;20443;-78
2021/10/25 04:50:21;;;;;;;8.35;3.28;;;5.70;90.90;;;;;;5011171;28;20729;-77
2021/10/25 04:52:47;;;;;;;6.50;3.60;;;5.70;91.00;;;;;;4993562;28;20389;-76
2021/10/25 04:55:12;;;;;;;8.13;3.00;;;5.80;90.70;;;;;;4993767;28;20384;-78
2021/10/25 04:57:38;;;;;;;7.28;3.28;;;5.80;90.60;;;;;;4993758;28;20726;-77
2021/10/25 05:00:06;;;;;;;4.13;2.93;;;5.80;90.70;;;;;;5010993;28;20459;-77
2021/10/25 05:02:31;;;;;;;9.23;3.07;;;5.90;90.60;;;;;;5011106;28;20400;-76
2021/10/25 05:04:57;;;;;;;6.50;3.03;;;5.90;90.20;;;;;;5011366;28;20823;-78
2021/10/25 05:07:22;;;;;;;5.30;3.30;;;6.00;90.40;;;;;;5011123;28;20830;-77
2021/10/25 05:09:48;;;;;;;8.03;2.83;;;6.10;90.30;;;;;;4993594;28;20396;-78
2021/10/25 05:12:13;;;;;;;6.50;3.00;;;6.00;89.70;;;;;;5011030;28;20411;-78
2021/10/25 05:14:41;;;;;;;6.65;3.60;;;6.10;90.00;;;;;;4993378;28;20395;-77
2021/10/25 05:17:07;;;;;;;6.03;2.88;;;6.00;90.10;;;;;;5011302;28;20393;-77
2021/10/25 05:19:32;;;;;;;6.00;3.45;;;5.90;89.50;;;;;;5010829;28;20757;-76
2021/10/25 05:21:58;;;;;;;7.17;2.97;;;5.90;89.50;;;;;;4993575;28;20730;-77
2021/10/25 05:24:24;;;;;;;6.90;3.30;;;5.90;90.20;;;;;;5010827;28;20381;-77
2021/10/25 05:26:49;;;;;;;6.75;3.40;;;5.90;90.20;;;;;;5011245;28;20373;-77
2021/10/25 05:29:15;;;;;;;4.30;2.88;;;6.00;90.20;;;;;;5010971;28;20404;-79
2021/10/25 05:31:41;;;;;;;6.40;3.38;;;6.00;89.90;;;;;;5019501;28;20386;-78
2021/10/25 05:34:09;;;;;;;5.53;2.90;;;6.00;90.40;;;;;;5033883;28;20507;-78
2021/10/25 05:36:35;;;;;;;6.10;2.93;;;6.10;90.20;;;;;;5034608;28;20732;-78
2021/10/25 05:39:02;;;;;;;8.38;3.38;;;6.20;89.80;;;;;;5034142;28;20375;-77
2021/10/25 05:41:29;;;;;;;6.95;2.92;;;6.20;89.60;;;;;;5016257;28;20435;-77
2021/10/25 05:43:55;;;;;;;5.90;3.07;;;6.10;89.80;;;;;;5034388;28;20375;-78
2021/10/25 05:46:20;;;;;;;5.13;2.60;;;6.00;90.00;;;;;;5033861;28;20417;-78
2021/10/25 05:48:46;;;;;;;6.88;3.20;;;6.20;89.90;;;;;;5016442;28;20473;-77
2021/10/25 05:51:12;;;;;;;4.93;2.72;;;6.20;89.70;;;;;;5034252;28;20431;-77
2021/10/25 05:53:37;;;;;;;6.32;2.90;;;6.20;89.60;;;;;;5016340;28;20390;-77
2021/10/25 05:56:04;;;;;;;6.70;3.22;;;6.10;89.70;;;;;;5033893;28;20407;-78
2021/10/25 05:58:30;;;;;;;9.07;3.53;;;6.20;89.70;;;;;;5034188;28;20465;-77
2021/10/25 06:00:59;;;;;;;6.03;3.15;;;6.20;89.40;;;;;;5033553;28;20434;-77
2021/10/25 06:03:27;;;;;;;6.57;2.85;;;6.20;89.40;;;;;;5033876;28;20383;-78
2021/10/25 06:05:53;;;;;;;6.15;3.17;;;6.10;89.50;;;;;;5033693;28;20455;-77
2021/10/25 06:08:19;;;;;;;7.27;3.33;;;6.20;89.40;;;;;;5016456;28;20387;-77
2021/10/25 06:10:45;;;;;;;6.45;2.88;;;6.20;89.00;;;;;;5033503;28;20894;-78
2021/10/25 06:13:37;;;;;;;5.68;3.20;;;6.20;89.00;;;;;;5033577;28;20380;-77
2021/10/25 06:16:03;;;;;;;4.38;2.65;;;6.20;88.90;;;;;;5032896;28;20888;-77
2021/10/25 06:18:28;;;;;;;3.75;2.55;;;6.20;88.90;;;;;;5033524;28;20413;-77
2021/10/25 06:20:54;;;;;;;4.67;3.10;;;6.30;88.80;;;;;;5033573;28;20398;-78
2021/10/25 06:23:19;;;;;;;9.73;3.30;;;6.20;88.80;;;;;;5015615;28;20534;-77
2021/10/25 06:25:50;;;;;;;7.33;2.87;;;6.30;88.90;;;;;;5015779;28;20814;-77
2021/10/25 06:28:16;;;;;;;7.67;3.50;;;6.30;88.70;;;;;;5033305;28;20391;-79
2021/10/25 06:30:41;;;;;;;5.93;2.95;;;6.30;88.70;;;;;;5033167;28;20470;-77
2021/10/25 06:33:08;;;;;;;8.27;3.37;;;6.30;88.50;;;;;;5032927;28;20383;-76
2021/10/25 06:35:34;;;;;;;14.73;6.30;;;6.20;88.70;;;;;;5033045;28;20379;-77
2021/10/25 06:38:08;;;;;;;7.15;3.08;;;6.20;88.90;;;;;;5033423;28;20389;-77
2021/10/25 06:40:34;;;;;;;9.00;4.20;;;6.10;89.10;;;;;;5032940;28;20502;-77
2021/10/25 06:43:00;;;;;;;5.87;3.47;;;6.10;88.80;;;;;;5015495;28;20806;-77
2021/10/25 06:45:26;;;;;;;6.80;3.30;;;6.00;89.10;;;;;;5032878;28;20375;-77
2021/10/25 06:47:53;;;;;;;6.22;3.13;;;6.00;89.20;;;;;;5033029;28;20840;-77
2021/10/25 06:50:23;;;;;;;7.18;3.38;;;6.10;89.10;;;;;;5032821;28;20383;-78
2021/10/25 06:52:50;;;;;;;6.22;3.15;;;6.20;88.90;;;;;;5033152;28;20374;-76
2021/10/25 06:55:16;;;;;;;6.43;3.08;;;6.30;88.90;;;;;;5032707;28;20383;-78
2021/10/25 06:57:42;;;;;;;4.68;2.70;;;6.30;88.80;;;;;;5033062;28;20389;-76
2021/10/25 07:00:09;;;;;;;4.55;2.70;;;6.40;88.70;;;;;;5032518;28;20786;-77
2021/10/25 07:02:35;;;;;;;6.63;3.00;;;6.40;88.50;;;;;;5032785;28;20383;-77
2021/10/25 07:05:02;;;;;;;6.38;3.30;;;6.40;88.70;;;;;;5015095;28;20852;-77
2021/10/25 07:07:29;;;;;;;9.30;3.47;;;6.40;88.70;;;;;;5014669;28;20388;-78
2021/10/25 07:09:56;;;;;;;7.75;2.85;;;6.40;88.60;;;;;;5015075;28;20387;-78
2021/10/25 07:12:24;;;;;;;4.65;2.85;;;6.40;88.30;;;;;;5032431;28;20379;-77
2021/10/25 07:14:54;;;;;;;6.25;2.92;;;6.40;88.20;;;;;;5032520;28;20376;-77
2021/10/25 07:17:48;;;;;;;5.80;2.85;;;6.50;87.90;;;;;;5032252;28;20375;-78
2021/10/25 08:04:19;;;;;;;6.70;2.70;;;7.50;84.40;;;;;;5023791;28;20783;-78
2021/10/25 08:06:58;;;;;;;5.22;3.00;;;7.60;84.10;;;;;;5024962;28;20436;-77
2021/10/25 08:09:48;;;;;;;7.78;2.72;;;7.90;82.60;;;;;;5007695;28;20394;-76
2021/10/25 08:12:20;;;;;;;4.65;2.63;;;7.90;82.60;;;;;;5017885;28;20385;-75
2021/10/25 08:14:50;;;;;;;4.40;2.45;;;8.10;82.60;;;;;;5012025;28;20796;-77
2021/10/25 08:17:19;;;;;;;5.55;2.70;;;8.10;82.80;;;;;;4997327;28;20707;-78
2021/10/25 08:19:46;;;;;;;6.20;2.70;;;8.20;83.10;;;;;;5011252;28;20857;-77
2021/10/25 08:22:15;;;;;;;4.78;2.72;;;8.40;82.80;;;;;;5010527;28;20473;-77
2021/10/25 08:24:48;;;;;;;6.90;2.70;;;8.50;81.70;;;;;;5018644;28;20441;-76
2021/10/25 08:27:16;;;;;;;5.15;2.80;;;8.40;84.50;;;;;;5026161;28;20452;-78
2021/10/25 08:29:45;;;;;;;3.85;2.45;;;8.60;81.90;;;;;;5031236;28;20421;-77
2021/10/25 08:32:20;;;;;;;4.13;2.42;;;8.90;81.20;;;;;;5031354;28;20406;-78
2021/10/25 08:39:48;;;;;;;4.65;2.20;;;9.30;80.00;;;;;;5031190;28;20399;-76
2021/10/25 08:42:23;;;;;;;4.93;2.10;;;9.60;78.60;;;;;;5031037;28;20419;-78
2021/10/25 08:45:14;;;;;;;7.75;2.10;;;9.60;77.90;;;;;;5031314;28;20383;-77
2021/10/25 08:47:40;;;;;;;3.33;2.00;;;9.70;77.90;;;;;;5030204;28;20398;-78
2021/10/25 08:50:13;;;;;;;7.13;2.50;;;10.00;76.70;;;;;;5031295;28;20391;-76
2021/10/25 08:52:39;;;;;;;3.35;1.80;;;9.90;77.50;;;;;;5030828;28;20368;-77
2021/10/25 08:55:10;;;;;;;5.53;2.40;;;9.90;77.10;;;;;;5013150;28;20391;-77
2021/10/25 08:57:37;;;;;;;3.70;2.10;;;10.20;76.60;;;;;;5018185;28;20447;-77
2021/10/25 09:00:08;;;;;;;3.92;2.22;;;10.20;76.10;;;;;;4993477;28;20410;-76
2021/10/25 09:02:34;;;;;;;4.50;2.40;;;10.30;75.40;;;;;;5011172;28;20913;-77
2021/10/25 09:05:07;;;;;;;3.53;1.80;;;10.40;77.10;;;;;;5009844;28;20420;-77
2021/10/25 09:07:47;;;;;;;3.35;1.65;;;10.50;76.40;;;;;;5012399;28;20443;-77
2021/10/25 09:10:15;;;;;;;3.95;1.90;;;10.70;75.60;;;;;;5014868;28;20389;-77
2021/10/25 09:12:41;;;;;;;3.55;1.80;;;10.80;74.10;;;;;;4997140;28;20392;-77
2021/10/25 09:15:07;;;;;;;3.07;1.67;;;10.80;75.60;;;;;;5014254;28;20381;-76
2021/10/25 09:17:41;;;;;;;6.03;1.95;;;11.00;74.80;;;;;;5013617;28;20404;-76
2021/10/25 09:20:08;;;;;;;5.18;2.13;;;10.80;74.20;;;;;;5014927;28;20459;-77
2021/10/25 09:22:34;;;;;;;3.90;1.90;;;10.90;74.90;;;;;;5014649;28;20768;-77
2021/10/25 09:25:00;;;;;;;4.55;1.60;;;11.20;72.40;;;;;;5015054;28;20376;-77
2021/10/25 09:27:42;;;;;;;3.00;1.90;;;11.20;73.50;;;;;;5014549;28;20412;-78
2021/10/25 09:30:14;;;;;;;3.10;1.80;;;11.30;73.70;;;;;;5014875;28;20380;-77
2021/10/25 09:32:42;;;;;;;3.53;1.83;;;11.30;71.90;;;;;;5014634;28;20384;-77
2021/10/25 09:35:27;;;;;;;3.08;1.40;;;11.20;74.50;;;;;;5014782;28;20377;-76
2021/10/25 09:38:04;;;;;;;4.47;1.50;;;11.60;71.50;;;;;;5014677;28;20388;-78
2021/10/25 09:40:50;;;;;;;3.40;1.80;;;11.60;71.30;;;;;;5014286;28;20466;-77
2021/10/25 09:45:06;;;;;;;3.00;1.50;;;11.80;70.90;;;;;;5014652;28;20995;-77
2021/10/25 09:46:36;;;;;;;2.35;1.48;;;11.80;70.60;;;;;;5013807;28;20473;-76
2021/10/25 09:51:28;;;;;;;4.40;1.63;;;11.90;69.40;;;;;;5014470;28;20819;-76
2021/10/25 09:53:58;;;;;;;5.00;1.80;;;12.00;69.70;;;;;;5014102;28;20434;-78
2021/10/25 09:56:34;;;;;;;4.90;1.77;;;12.10;68.40;;;;;;5014474;28;20427;-76
2021/10/25 09:59:10;;;;;;;2.55;1.58;;;12.10;68.10;;;;;;5014075;28;20408;-76
2021/10/25 10:01:37;;;;;;;6.65;1.80;;;12.10;70.00;;;;;;4996429;28;20765;-79
2021/10/25 10:04:06;;;;;;;4.35;1.42;;;12.20;70.70;;;;;;4996283;28;20408;-76
2021/10/25 10:06:32;;;;;;;2.97;1.43;;;12.50;69.40;;;;;;5014251;28;20388;-77
2021/10/25 10:08:58;;;;;;;2.88;1.48;;;12.50;67.90;;;;;;5013753;28;20695;-78
2021/10/25 10:11:26;;;;;;;4.25;1.60;;;12.50;68.90;;;;;;4996521;28;20769;-77
2021/10/25 10:13:52;;;;;;;2.58;1.50;;;12.50;69.50;;;;;;5014250;28;20718;-76
2021/10/25 10:16:18;;;;;;;3.22;1.60;;;12.60;67.60;;;;;;5013769;28;20706;-77
2021/10/25 10:18:49;;;;;;;2.73;1.80;;;12.50;68.80;;;;;;4995834;28;20419;-77
2021/10/25 10:21:16;;;;;;;3.28;1.77;;;12.40;69.70;;;;;;5024206;28;20428;-77
2021/10/25 10:23:54;;;;;;;3.20;1.73;;;12.40;69.80;;;;;;5029508;28;20751;-76
2021/10/25 10:26:20;;;;;;;3.55;1.77;;;12.40;68.40;;;;;;5033366;28;20374;-77
2021/10/25 10:28:50;;;;;;;3.67;1.83;;;12.40;68.80;;;;;;5033471;28;20391;-76
2021/10/25 10:31:25;;;;;;;6.65;1.90;;;12.40;69.20;;;;;;5015553;28;20399;-76
2021/10/25 10:33:54;;;;;;;6.80;2.20;;;12.40;71.50;;;;;;5033378;28;20422;-77
2021/10/25 10:36:24;;;;;;;5.40;1.70;;;12.50;70.30;;;;;;5033160;28;20697;-77
2021/10/25 10:39:01;;;;;;;3.67;1.70;;;12.60;70.10;;;;;;5015217;28;20383;-76
2021/10/25 10:41:38;;;;;;;2.20;1.40;;;12.60;71.20;;;;;;5015508;28;20415;-77
2021/10/25 10:44:13;;;;;;;3.75;1.85;;;12.70;71.00;;;;;;5032830;28;20390;-76
2021/10/25 10:46:41;;;;;;;4.55;1.50;;;12.70;72.70;;;;;;5033229;28;20383;-77
2021/10/25 10:49:26;;;;;;;2.80;1.43;;;12.60;72.20;;;;;;5032835;28;20824;-77
2021/10/25 10:52:32;;;;;;;3.00;1.70;;;12.70;71.70;;;;;;5015448;28;20392;-77
2021/10/25 10:55:33;;;;;;;4.87;1.87;;;12.60;70.90;;;;;;5017826;28;20727;-77
2021/10/25 11:00:31;;;;;;;4.82;1.60;;;12.70;69.70;;;;;;5032975;28;20872;-76
2021/10/25 11:03:16;;;;;;;6.50;1.70;;;12.60;70.50;;;;;;5014731;28;20441;-77
2021/10/25 11:05:54;;;;;;;4.43;1.80;;;12.60;70.40;;;;;;5031856;28;20391;-77
2021/10/25 11:08:27;;;;;;;5.50;1.83;;;12.70;70.90;;;;;;5032170;28;21751;-77
2021/10/25 11:11:09;;;;;;;3.72;1.60;;;12.70;71.50;;;;;;5032506;28;20383;-78
2021/10/25 11:13:41;;;;;;;4.53;1.63;;;12.80;71.20;;;;;;5032679;28;20456;-76
2021/10/25 11:16:14;;;;;;;5.30;1.52;;;12.90;70.90;;;;;;5032562;28;20720;-77
2021/10/25 11:18:48;;;;;;;5.97;1.50;;;12.90;71.80;;;;;;5026732;28;20418;-77
2021/10/25 11:21:21;;;;;;;6.18;1.88;;;12.90;71.90;;;;;;5014068;28;20463;-76
2021/10/25 11:24:03;;;;;;;4.50;1.80;;;12.90;71.20;;;;;;5032293;28;20391;-77
2021/10/25 11:26:35;;;;;;;5.70;1.70;;;12.80;71.40;;;;;;5032553;28;20384;-77
2021/10/25 11:29:16;;;;;;;3.17;1.50;;;12.90;71.80;;;;;;5031751;28;20407;-77
2021/10/25 11:31:46;;;;;;;4.60;1.77;;;12.90;72.30;;;;;;5031861;28;20387;-77
2021/10/25 11:34:21;;;;;;;4.07;1.50;;;13.10;70.00;;;;;;5031821;28;20875;-77
2021/10/25 11:37:20;;;;;;;4.05;1.60;;;13.20;70.80;;;;;;4995102;28;20484;-76
2021/10/25 11:40:04;;;;;;;5.18;1.70;;;13.20;69.90;;;;;;4997534;28;20463;-77
2021/10/25 11:42:33;;;;;;;2.50;1.30;;;13.30;69.40;;;;;;4994214;28;20393;-77
2021/10/25 11:45:12;;;;;;;6.38;1.80;;;13.30;68.80;;;;;;5012702;28;20388;-77
2021/10/25 11:47:43;;;;;;;3.15;1.50;;;13.20;71.30;;;;;;5012169;28;20381;-77
2021/10/25 11:50:16;;;;;;;3.53;1.60;;;13.30;71.10;;;;;;5012223;28;20384;-77
2021/10/25 11:52:49;;;;;;;5.40;1.60;;;13.20;69.30;;;;;;4994362;28;20937;-77
2021/10/25 11:55:18;;;;;;;4.20;1.70;;;13.20;68.20;;;;;;5011688;28;20837;-77
2021/10/25 11:57:48;;;;;;;5.97;1.63;;;13.30;68.80;;;;;;4994621;28;20931;-77
2021/10/25 12:00:15;;;;;;;6.97;1.45;;;13.50;68.40;;;;;;5011535;28;20749;-77
2021/10/25 12:02:40;;;;;;;4.22;1.60;;;13.60;67.80;;;;;;5012173;28;20385;-77
2021/10/25 12:05:07;;;;;;;5.28;1.80;;;13.60;69.00;;;;;;5011760;28;20426;-76
2021/10/25 12:07:33;;;;;;;4.13;1.67;;;13.50;68.30;;;;;;5011994;28;20397;-78
2021/10/25 12:10:04;;;;;;;2.70;1.58;;;13.50;67.80;;;;;;5011645;28;20384;-78
2021/10/25 12:12:30;;;;;;;3.55;1.80;;;13.50;67.60;;;;;;4994238;28;20471;-77
2021/10/25 12:14:59;;;;;;;4.07;1.70;;;13.60;67.20;;;;;;5011964;28;20528;-77
2021/10/25 12:17:34;;;;;;;3.50;1.52;;;13.70;67.30;;;;;;5011914;28;20381;-78
2021/10/25 12:20:06;;;;;;;3.88;1.48;;;13.80;66.70;;;;;;4994056;28;20409;-77
2021/10/25 12:22:33;;;;;;;5.20;1.67;;;14.00;68.40;;;;;;4993448;28;20416;-79
2021/10/25 12:24:59;;;;;;;3.15;1.60;;;14.30;67.70;;;;;;5011544;28;20888;-80
2021/10/25 12:27:32;;;;;;;2.55;1.45;;;14.10;67.00;;;;;;5010964;28;20385;-78
2021/10/25 12:30:00;;;;;;;6.13;1.70;;;13.90;69.10;;;;;;5012008;28;20892;-79
2021/10/25 12:32:26;;;;;;;4.83;1.53;;;13.80;68.50;;;;;;5010232;28;20413;-80
2021/10/25 12:34:54;;;;;;;4.37;1.70;;;13.80;67.80;;;;;;4999592;28;20419;-79
2021/10/25 12:37:22;;;;;;;5.38;1.40;;;13.80;67.80;;;;;;5011341;28;20373;-79
2021/10/25 12:39:48;;;;;;;13.57;1.40;;;13.80;67.80;;;;;;5011588;28;20404;-79
2021/10/25 12:42:14;;;;;;;5.63;1.40;;;13.90;67.50;;;;;;5014816;28;20769;-79
2021/10/25 12:44:44;;;;;;;2.38;1.40;;;13.90;68.10;;;;;;5017389;28;20377;-79
2021/10/25 12:47:21;;;;;;;2.17;1.40;;;13.90;68.90;;;;;;5018164;28;20387;-79
2021/10/25 12:49:52;;;;;;;4.82;1.50;;;13.90;67.90;;;;;;5017305;28;20837;-79
2021/10/25 12:52:20;;;;;;;3.58;1.60;;;13.90;70.70;;;;;;5000389;28;20435;-79
2021/10/25 12:54:46;;;;;;;2.27;1.60;;;13.90;67.80;;;;;;5017877;28;20392;-79
2021/10/25 12:57:22;;;;;;;2.78;1.55;;;13.90;70.40;;;;;;5003257;28;20432;-80
2021/10/25 13:00:08;;;;;;;5.65;1.98;;;13.90;70.00;;;;;;5017636;28;20407;-80
2021/10/25 13:02:51;;;;;;;3.15;1.70;;;13.90;67.50;;;;;;5017682;28;20838;-78
2021/10/25 13:05:21;;;;;;;5.68;1.98;;;13.80;69.00;;;;;;5017954;28;20401;-78
2021/10/25 13:07:55;;;;;;;3.00;1.80;;;13.90;67.90;;;;;;5017958;28;20384;-79
2021/10/25 13:10:33;;;;;;;2.53;1.58;;;13.90;66.50;;;;;;5017920;28;20382;-79
2021/10/25 13:13:00;;;;;;;3.30;1.58;;;13.80;67.90;;;;;;5000109;28;20404;-80
2021/10/25 13:15:26;;;;;;;2.40;1.50;;;13.90;69.20;;;;;;5017629;28;20377;-79
2021/10/25 13:17:54;;;;;;;5.97;1.70;;;13.90;65.80;;;;;;5000233;28;20377;-80
2021/10/25 13:20:23;;;;;;;4.90;1.65;;;13.90;65.80;;;;;;5000115;28;20566;-79
2021/10/25 13:22:51;;;;;;;5.47;1.70;;;13.90;66.20;;;;;;4999893;28;20443;-79
2021/10/25 13:25:19;;;;;;;5.68;1.52;;;13.90;67.70;;;;;;4999859;28;20392;-79
2021/10/25 13:27:45;;;;;;;3.63;1.65;;;13.80;65.90;;;;;;5017723;28;20491;-79
2021/10/25 13:30:13;;;;;;;2.90;1.70;;;13.90;67.90;;;;;;5017488;28;20384;-79
2021/10/25 13:32:39;;;;;;;4.13;1.85;;;13.80;67.20;;;;;;5000055;28;20861;-79
2021/10/25 13:35:06;;;;;;;2.20;1.50;;;13.80;68.00;;;;;;5017348;28;20431;-78
2021/10/25 13:37:32;;;;;;;6.07;1.95;;;13.80;67.20;;;;;;5035431;28;20466;-78
2021/10/25 13:39:58;;;;;;;4.03;1.95;;;13.70;69.30;;;;;;5037121;28;20498;-79
2021/10/25 13:42:24;;;;;;;5.68;1.95;;;13.70;67.80;;;;;;5036224;28;20387;-79
2021/10/25 13:44:50;;;;;;;3.42;1.77;;;13.60;68.30;;;;;;5019464;28;20395;-80
2021/10/25 13:47:17;;;;;;;6.83;1.67;;;13.60;68.50;;;;;;5018087;28;20756;-77
2021/10/25 13:49:42;;;;;;;4.30;1.77;;;13.60;68.90;;;;;;5017453;28;20853;-79
2021/10/25 13:52:08;;;;;;;5.38;1.90;;;13.60;69.40;;;;;;4999572;28;20388;-79
2021/10/25 13:54:34;;;;;;;5.22;1.90;;;13.60;68.70;;;;;;5013864;28;20372;-80
2021/10/25 13:57:04;;;;;;;4.63;2.08;;;13.60;68.10;;;;;;5014141;28;20464;-77
2021/10/25 13:59:31;;;;;;;5.97;2.20;;;13.70;68.20;;;;;;5014332;28;20471;-76
2021/10/25 14:01:56;;;;;;;4.93;1.92;;;13.70;68.50;;;;;;5013834;28;20464;-79
2021/10/25 14:04:22;;;;;;;4.80;1.90;;;13.70;68.40;;;;;;5014324;28;20391;-79
2021/10/25 14:06:47;;;;;;;6.60;2.20;;;13.60;69.70;;;;;;5013974;28;20381;-79
2021/10/25 14:09:13;;;;;;;4.43;1.80;;;13.60;69.50;;;;;;5014228;28;20372;-79
2021/10/25 14:11:47;;;;;;;6.15;2.20;;;13.60;68.50;;;;;;5013817;28;20377;-78
2021/10/25 14:14:19;;;;;;;4.10;2.13;;;13.60;68.20;;;;;;5014118;28;20392;-79
2021/10/25 14:16:54;;;;;;;4.43;2.20;;;13.50;68.60;;;;;;5014106;28;20381;-79
2021/10/25 14:19:22;;;;;;;5.97;2.43;;;13.40;69.60;;;;;;4996188;28;20397;-79
2021/10/25 14:21:50;;;;;;;8.17;1.80;;;13.40;69.10;;;;;;5013889;28;20801;-79
2021/10/25 14:24:16;;;;;;;4.17;2.10;;;13.40;69.90;;;;;;5013505;28;20475;-79